sensor_id;sensor_type;location;lat;lon;timestamp;P1;durP1;ratioP1;P2;durP2;ratioP2
33814;SDS011;20121;51.910;8.406;2023-05-10T00:01:37;3.80;;;2.30;;
33814;SDS011;20121;51.910;8.406;2023-05-10T00:04:03;2.70;;;2.40;;
33814;SDS011;20121;51.910;8.406;2023-05-10T00:06:29;6.93;;;3.97;;
33814;SDS011;20121;51.910;8.406;2023-05-10T00:08:55;6.82;;;4.40;;
33814;SDS011;20121;51.910;8.406;2023-05-10T00:11:20;4.10;;;2.90;;
33814;SDS011;20121;51.910;8.406;2023-05-10T00:13:46;3.63;;;3.23;;
33814;SDS011;20121;51.910;8.406;2023-05-10T00:16:12;4.93;;;3.53;;
33814;SDS011;20121;51.910;8.406;2023-05-10T00:18:38;3.93;;;2.90;;
33814;SDS011;20121;51.910;8.406;2023-05-10T00:21:04;6.20;;;3.03;;
33814;SDS011;20121;51.910;8.406;2023-05-10T00:23:30;3.40;;;2.70;;
33814;SDS011;20121;51.910;8.406;2023-05-10T00:25:55;4.10;;;3.00;;
33814;SDS011;20121;51.910;8.406;2023-05-10T00:28:21;5.97;;;3.70;;
33814;SDS011;20121;51.910;8.406;2023-05-10T00:30:47;9.43;;;2.90;;
33814;SDS011;20121;51.910;8.406;2023-05-10T00:33:12;3.57;;;2.60;;
33814;SDS011;20121;51.910;8.406;2023-05-10T00:35:38;8.90;;;3.37;;
33814;SDS011;20121;51.910;8.406;2023-05-10T00:38:04;2.13;;;1.90;;
33814;SDS011;20121;51.910;8.406;2023-05-10T00:40:30;1.80;;;1.67;;
33814;SDS011;20121;51.910;8.406;2023-05-10T00:42:58;1.58;;;1.48;;
33814;SDS011;20121;51.910;8.406;2023-05-10T00:45:25;2.45;;;2.25;;
33814;SDS011;20121;51.910;8.406;2023-05-10T00:47:51;5.30;;;2.08;;
33814;SDS011;20121;51.910;8.406;2023-05-10T00:50:20;3.25;;;2.30;;
33814;SDS011;20121;51.910;8.406;2023-05-10T00:52:46;2.45;;;2.10;;
33814;SDS011;20121;51.910;8.406;2023-05-10T00:55:12;2.40;;;2.20;;
33814;SDS011;20121;51.910;8.406;2023-05-10T00:57:38;2.30;;;2.10;;
33814;SDS011;20121;51.910;8.406;2023-05-10T01:00:04;2.33;;;1.95;;
33814;SDS011;20121;51.910;8.406;2023-05-10T01:02:30;2.22;;;1.55;;
33814;SDS011;20121;51.910;8.406;2023-05-10T01:04:58;3.67;;;1.92;;
33814;SDS011;20121;51.910;8.406;2023-05-10T01:07:24;3.25;;;2.40;;
33814;SDS011;20121;51.910;8.406;2023-05-10T01:09:50;3.50;;;2.70;;
33814;SDS011;20121;51.910;8.406;2023-05-10T01:12:16;3.23;;;2.47;;
33814;SDS011;20121;51.910;8.406;2023-05-10T01:14:41;4.13;;;2.63;;
33814;SDS011;20121;51.910;8.406;2023-05-10T01:17:08;3.13;;;2.88;;
33814;SDS011;20121;51.910;8.406;2023-05-10T01:19:35;4.20;;;3.80;;
33814;SDS011;20121;51.910;8.406;2023-05-10T01:28:04;2.90;;;2.50;;
33814;SDS011;20121;51.910;8.406;2023-05-10T01:33:49;2.95;;;2.60;;
33814;SDS011;20121;51.910;8.406;2023-05-10T01:38:59;1.90;;;1.75;;
33814;SDS011;20121;51.910;8.406;2023-05-10T01:41:40;3.55;;;3.22;;
33814;SDS011;20121;51.910;8.406;2023-05-10T01:47:11;4.70;;;2.33;;
33814;SDS011;20121;51.910;8.406;2023-05-10T01:49:49;2.38;;;1.40;;
33814;SDS011;20121;51.910;8.406;2023-05-10T01:52:18;3.08;;;2.13;;
33814;SDS011;20121;51.910;8.406;2023-05-10T01:54:51;2.22;;;1.80;;
33814;SDS011;20121;51.910;8.406;2023-05-10T01:57:21;2.13;;;1.92;;
33814;SDS011;20121;51.910;8.406;2023-05-10T01:59:49;2.63;;;2.42;;
33814;SDS011;20121;51.910;8.406;2023-05-10T02:02:17;2.65;;;2.00;;
33814;SDS011;20121;51.910;8.406;2023-05-10T02:04:45;3.22;;;2.90;;
33814;SDS011;20121;51.910;8.406;2023-05-10T02:07:12;3.60;;;2.00;;
33814;SDS011;20121;51.910;8.406;2023-05-10T02:09:39;2.22;;;1.80;;
33814;SDS011;20121;51.910;8.406;2023-05-10T02:12:05;3.10;;;2.70;;
33814;SDS011;20121;51.910;8.406;2023-05-10T02:14:34;7.60;;;2.45;;
33814;SDS011;20121;51.910;8.406;2023-05-10T02:17:02;2.70;;;1.52;;
33814;SDS011;20121;51.910;8.406;2023-05-10T02:19:30;1.90;;;1.70;;
33814;SDS011;20121;51.910;8.406;2023-05-10T02:21:58;3.45;;;1.60;;
33814;SDS011;20121;51.910;8.406;2023-05-10T02:24:24;2.45;;;2.25;;
33814;SDS011;20121;51.910;8.406;2023-05-10T02:26:51;2.58;;;2.20;;
33814;SDS011;20121;51.910;8.406;2023-05-10T02:29:18;3.05;;;2.70;;
33814;SDS011;20121;51.910;8.406;2023-05-10T02:31:45;1.90;;;1.80;;
33814;SDS011;20121;51.910;8.406;2023-05-10T02:34:11;4.40;;;2.70;;
33814;SDS011;20121;51.910;8.406;2023-05-10T02:36:38;2.28;;;2.08;;
33814;SDS011;20121;51.910;8.406;2023-05-10T02:39:05;2.90;;;2.47;;
33814;SDS011;20121;51.910;8.406;2023-05-10T02:41:37;3.08;;;2.00;;
33814;SDS011;20121;51.910;8.406;2023-05-10T02:44:04;3.28;;;2.40;;
33814;SDS011;20121;51.910;8.406;2023-05-10T02:46:33;2.50;;;2.28;;
33814;SDS011;20121;51.910;8.406;2023-05-10T02:48:59;4.65;;;3.15;;
33814;SDS011;20121;51.910;8.406;2023-05-10T02:51:26;2.85;;;2.63;;
33814;SDS011;20121;51.910;8.406;2023-05-10T02:53:56;3.65;;;2.90;;
33814;SDS011;20121;51.910;8.406;2023-05-10T02:56:25;3.97;;;2.90;;
33814;SDS011;20121;51.910;8.406;2023-05-10T02:58:56;6.28;;;3.78;;
33814;SDS011;20121;51.910;8.406;2023-05-10T03:01:22;9.47;;;3.57;;
33814;SDS011;20121;51.910;8.406;2023-05-10T03:03:48;4.03;;;3.35;;
33814;SDS011;20121;51.910;8.406;2023-05-10T03:06:14;2.83;;;2.63;;
33814;SDS011;20121;51.910;8.406;2023-05-10T03:08:41;5.68;;;2.97;;
33814;SDS011;20121;51.910;8.406;2023-05-10T03:13:50;6.13;;;4.00;;
33814;SDS011;20121;51.910;8.406;2023-05-10T03:17:06;3.53;;;2.70;;
33814;SDS011;20121;51.910;8.406;2023-05-10T03:19:42;7.10;;;3.72;;
33814;SDS011;20121;51.910;8.406;2023-05-10T03:22:17;7.32;;;3.33;;
33814;SDS011;20121;51.910;8.406;2023-05-10T03:24:55;4.10;;;3.15;;
33814;SDS011;20121;51.910;8.406;2023-05-10T03:27:23;5.25;;;3.88;;
33814;SDS011;20121;51.910;8.406;2023-05-10T03:29:52;5.47;;;3.47;;
33814;SDS011;20121;51.910;8.406;2023-05-10T03:32:19;4.05;;;2.75;;
33814;SDS011;20121;51.910;8.406;2023-05-10T03:34:45;3.00;;;2.47;;
33814;SDS011;20121;51.910;8.406;2023-05-10T03:37:11;4.43;;;2.60;;
33814;SDS011;20121;51.910;8.406;2023-05-10T03:39:36;5.10;;;3.23;;
33814;SDS011;20121;51.910;8.406;2023-05-10T03:42:02;5.17;;;2.80;;
33814;SDS011;20121;51.910;8.406;2023-05-10T03:44:28;2.38;;;2.08;;
33814;SDS011;20121;51.910;8.406;2023-05-10T03:46:53;4.83;;;3.00;;
33814;SDS011;20121;51.910;8.406;2023-05-10T03:49:20;3.92;;;2.13;;
33814;SDS011;20121;51.910;8.406;2023-05-10T03:51:46;2.50;;;1.90;;
33814;SDS011;20121;51.910;8.406;2023-05-10T03:54:11;1.63;;;1.20;;
33814;SDS011;20121;51.910;8.406;2023-05-10T03:56:37;1.43;;;1.33;;
33814;SDS011;20121;51.910;8.406;2023-05-10T03:59:03;2.13;;;1.55;;
33814;SDS011;20121;51.910;8.406;2023-05-10T04:01:32;2.65;;;1.25;;
33814;SDS011;20121;51.910;8.406;2023-05-10T04:03:58;2.35;;;1.13;;
33814;SDS011;20121;51.910;8.406;2023-05-10T04:06:24;1.03;;;0.97;;
33814;SDS011;20121;51.910;8.406;2023-05-10T04:08:49;1.00;;;0.90;;
33814;SDS011;20121;51.910;8.406;2023-05-10T04:11:15;1.30;;;1.20;;
33814;SDS011;20121;51.910;8.406;2023-05-10T04:13:41;1.27;;;1.17;;
33814;SDS011;20121;51.910;8.406;2023-05-10T04:16:08;1.35;;;1.25;;
33814;SDS011;20121;51.910;8.406;2023-05-10T04:18:34;1.38;;;0.90;;
33814;SDS011;20121;51.910;8.406;2023-05-10T04:20:59;1.40;;;1.00;;
33814;SDS011;20121;51.910;8.406;2023-05-10T04:23:26;1.33;;;1.23;;
33814;SDS011;20121;51.910;8.406;2023-05-10T04:25:52;0.95;;;0.88;;
33814;SDS011;20121;51.910;8.406;2023-05-10T04:28:17;1.40;;;1.30;;
33814;SDS011;20121;51.910;8.406;2023-05-10T04:30:43;1.03;;;1.03;;
33814;SDS011;20121;51.910;8.406;2023-05-10T04:33:09;2.03;;;1.20;;
33814;SDS011;20121;51.910;8.406;2023-05-10T04:35:34;1.33;;;1.23;;
33814;SDS011;20121;51.910;8.406;2023-05-10T04:38:03;1.20;;;1.10;;
33814;SDS011;20121;51.910;8.406;2023-05-10T04:40:29;1.98;;;1.63;;
33814;SDS011;20121;51.910;8.406;2023-05-10T04:42:55;2.30;;;1.00;;
33814;SDS011;20121;51.910;8.406;2023-05-10T04:45:20;2.40;;;2.20;;
33814;SDS011;20121;51.910;8.406;2023-05-10T04:47:47;1.30;;;1.20;;
33814;SDS011;20121;51.910;8.406;2023-05-10T04:50:13;1.40;;;1.30;;
33814;SDS011;20121;51.910;8.406;2023-05-10T04:52:38;2.17;;;1.20;;
33814;SDS011;20121;51.910;8.406;2023-05-10T04:55:04;1.27;;;1.17;;
33814;SDS011;20121;51.910;8.406;2023-05-10T04:57:32;1.20;;;1.10;;
33814;SDS011;20121;51.910;8.406;2023-05-10T04:59:59;1.63;;;1.40;;
33814;SDS011;20121;51.910;8.406;2023-05-10T05:02:25;1.65;;;1.55;;
33814;SDS011;20121;51.910;8.406;2023-05-10T05:04:51;2.00;;;1.57;;
33814;SDS011;20121;51.910;8.406;2023-05-10T05:07:17;1.13;;;0.98;;
33814;SDS011;20121;51.910;8.406;2023-05-10T05:09:42;1.40;;;1.20;;
33814;SDS011;20121;51.910;8.406;2023-05-10T05:12:08;2.00;;;1.90;;
33814;SDS011;20121;51.910;8.406;2023-05-10T05:14:38;1.20;;;1.08;;
33814;SDS011;20121;51.910;8.406;2023-05-10T05:17:05;1.75;;;1.63;;
33814;SDS011;20121;51.910;8.406;2023-05-10T05:19:30;1.23;;;1.13;;
33814;SDS011;20121;51.910;8.406;2023-05-10T05:21:56;2.10;;;1.20;;
33814;SDS011;20121;51.910;8.406;2023-05-10T05:24:22;1.67;;;1.53;;
33814;SDS011;20121;51.910;8.406;2023-05-10T05:26:48;1.40;;;1.20;;
33814;SDS011;20121;51.910;8.406;2023-05-10T05:29:13;0.80;;;0.80;;
33814;SDS011;20121;51.910;8.406;2023-05-10T05:31:39;1.30;;;1.20;;
33814;SDS011;20121;51.910;8.406;2023-05-10T05:34:04;1.47;;;1.37;;
33814;SDS011;20121;51.910;8.406;2023-05-10T05:36:30;1.60;;;1.50;;
33814;SDS011;20121;51.910;8.406;2023-05-10T05:38:56;1.33;;;1.23;;
33814;SDS011;20121;51.910;8.406;2023-05-10T05:41:22;1.67;;;1.30;;
33814;SDS011;20121;51.910;8.406;2023-05-10T05:43:49;2.42;;;1.20;;
33814;SDS011;20121;51.910;8.406;2023-05-10T05:46:15;2.20;;;2.00;;
33814;SDS011;20121;51.910;8.406;2023-05-10T05:48:40;2.20;;;1.20;;
33814;SDS011;20121;51.910;8.406;2023-05-10T05:51:06;1.33;;;1.23;;
33814;SDS011;20121;51.910;8.406;2023-05-10T05:53:32;1.70;;;1.37;;
33814;SDS011;20121;51.910;8.406;2023-05-10T05:55:58;1.23;;;1.10;;
33814;SDS011;20121;51.910;8.406;2023-05-10T05:58:24;1.77;;;1.67;;
33814;SDS011;20121;51.910;8.406;2023-05-10T06:00:50;3.53;;;1.25;;
33814;SDS011;20121;51.910;8.406;2023-05-10T06:03:19;1.33;;;1.23;;
33814;SDS011;20121;51.910;8.406;2023-05-10T06:05:45;1.73;;;1.30;;
33814;SDS011;20121;51.910;8.406;2023-05-10T06:08:11;1.52;;;1.27;;
33814;SDS011;20121;51.910;8.406;2023-05-10T06:10:37;2.97;;;1.50;;
33814;SDS011;20121;51.910;8.406;2023-05-10T06:13:02;1.60;;;1.40;;
33814;SDS011;20121;51.910;8.406;2023-05-10T06:15:28;1.63;;;1.20;;
33814;SDS011;20121;51.910;8.406;2023-05-10T06:17:54;1.30;;;1.20;;
33814;SDS011;20121;51.910;8.406;2023-05-10T06:20:19;0.97;;;0.80;;
33814;SDS011;20121;51.910;8.406;2023-05-10T06:22:45;1.33;;;1.17;;
33814;SDS011;20121;51.910;8.406;2023-05-10T06:25:11;1.33;;;1.23;;
33814;SDS011;20121;51.910;8.406;2023-05-10T06:27:36;1.33;;;1.10;;
33814;SDS011;20121;51.910;8.406;2023-05-10T06:30:02;1.30;;;1.20;;
33814;SDS011;20121;51.910;8.406;2023-05-10T06:32:28;3.05;;;2.08;;
33814;SDS011;20121;51.910;8.406;2023-05-10T06:34:54;4.50;;;1.33;;
33814;SDS011;20121;51.910;8.406;2023-05-10T06:37:20;1.25;;;1.15;;
33814;SDS011;20121;51.910;8.406;2023-05-10T06:39:45;1.20;;;1.10;;
33814;SDS011;20121;51.910;8.406;2023-05-10T06:42:11;1.33;;;1.23;;
33814;SDS011;20121;51.910;8.406;2023-05-10T06:44:37;2.20;;;2.00;;
33814;SDS011;20121;51.910;8.406;2023-05-10T06:47:02;2.53;;;2.10;;
33814;SDS011;20121;51.910;8.406;2023-05-10T06:49:28;1.93;;;1.27;;
33814;SDS011;20121;51.910;8.406;2023-05-10T06:51:55;5.23;;;2.17;;
33814;SDS011;20121;51.910;8.406;2023-05-10T06:54:20;2.90;;;1.92;;
33814;SDS011;20121;51.910;8.406;2023-05-10T06:56:46;2.70;;;1.97;;
33814;SDS011;20121;51.910;8.406;2023-05-10T06:59:12;2.10;;;1.80;;
33814;SDS011;20121;51.910;8.406;2023-05-10T07:01:38;2.83;;;1.67;;
33814;SDS011;20121;51.910;8.406;2023-05-10T07:04:04;3.47;;;2.70;;
33814;SDS011;20121;51.910;8.406;2023-05-10T07:06:30;3.23;;;2.73;;
33814;SDS011;20121;51.910;8.406;2023-05-10T07:08:55;4.90;;;2.53;;
33814;SDS011;20121;51.910;8.406;2023-05-10T07:11:22;3.35;;;2.95;;
33814;SDS011;20121;51.910;8.406;2023-05-10T07:13:47;7.73;;;2.47;;
33814;SDS011;20121;51.910;8.406;2023-05-10T07:16:13;4.40;;;3.80;;
33814;SDS011;20121;51.910;8.406;2023-05-10T07:18:38;6.23;;;3.47;;
33814;SDS011;20121;51.910;8.406;2023-05-10T07:21:04;3.00;;;2.40;;
33814;SDS011;20121;51.910;8.406;2023-05-10T07:23:30;4.30;;;2.60;;
33814;SDS011;20121;51.910;8.406;2023-05-10T07:25:55;4.87;;;3.40;;
33814;SDS011;20121;51.910;8.406;2023-05-10T07:28:22;4.30;;;3.08;;
33814;SDS011;20121;51.910;8.406;2023-05-10T07:30:49;8.18;;;4.00;;
33814;SDS011;20121;51.910;8.406;2023-05-10T07:33:15;6.87;;;4.07;;
33814;SDS011;20121;51.910;8.406;2023-05-10T07:35:41;7.03;;;4.05;;
33814;SDS011;20121;51.910;8.406;2023-05-10T07:38:07;3.93;;;3.17;;
33814;SDS011;20121;51.910;8.406;2023-05-10T07:40:32;7.70;;;3.67;;
33814;SDS011;20121;51.910;8.406;2023-05-10T07:42:58;3.37;;;2.40;;
33814;SDS011;20121;51.910;8.406;2023-05-10T07:45:26;13.52;;;3.55;;
33814;SDS011;20121;51.910;8.406;2023-05-10T07:47:52;3.43;;;2.60;;
33814;SDS011;20121;51.910;8.406;2023-05-10T07:50:18;4.63;;;3.30;;
33814;SDS011;20121;51.910;8.406;2023-05-10T07:52:43;7.07;;;4.40;;
33814;SDS011;20121;51.910;8.406;2023-05-10T07:55:09;9.00;;;3.47;;
33814;SDS011;20121;51.910;8.406;2023-05-10T07:57:35;7.30;;;4.50;;
33814;SDS011;20121;51.910;8.406;2023-05-10T08:00:01;6.97;;;3.60;;
33814;SDS011;20121;51.910;8.406;2023-05-10T08:02:27;5.22;;;4.38;;
33814;SDS011;20121;51.910;8.406;2023-05-10T08:04:53;9.13;;;4.50;;
33814;SDS011;20121;51.910;8.406;2023-05-10T08:07:20;7.87;;;4.60;;
33814;SDS011;20121;51.910;8.406;2023-05-10T08:09:46;8.80;;;3.40;;
33814;SDS011;20121;51.910;8.406;2023-05-10T08:12:11;7.87;;;3.60;;
33814;SDS011;20121;51.910;8.406;2023-05-10T08:14:37;11.60;;;4.20;;
33814;SDS011;20121;51.910;8.406;2023-05-10T08:17:03;7.00;;;3.50;;
33814;SDS011;20121;51.910;8.406;2023-05-10T08:19:29;10.15;;;4.72;;
33814;SDS011;20121;51.910;8.406;2023-05-10T08:21:54;6.57;;;3.97;;
33814;SDS011;20121;51.910;8.406;2023-05-10T08:24:20;15.27;;;7.13;;
33814;SDS011;20121;51.910;8.406;2023-05-10T08:26:47;10.05;;;5.85;;
33814;SDS011;20121;51.910;8.406;2023-05-10T08:29:13;9.23;;;5.10;;
33814;SDS011;20121;51.910;8.406;2023-05-10T08:31:39;18.02;;;6.07;;
33814;SDS011;20121;51.910;8.406;2023-05-10T08:34:04;8.80;;;7.53;;
33814;SDS011;20121;51.910;8.406;2023-05-10T08:36:30;7.80;;;5.20;;
33814;SDS011;20121;51.910;8.406;2023-05-10T08:38:57;14.18;;;4.75;;
33814;SDS011;20121;51.910;8.406;2023-05-10T08:41:23;12.50;;;4.40;;
33814;SDS011;20121;51.910;8.406;2023-05-10T08:43:51;6.95;;;3.63;;
33814;SDS011;20121;51.910;8.406;2023-05-10T08:46:18;11.13;;;4.38;;
33814;SDS011;20121;51.910;8.406;2023-05-10T08:48:45;9.50;;;5.65;;
33814;SDS011;20121;51.910;8.406;2023-05-10T08:51:18;11.75;;;5.18;;
33814;SDS011;20121;51.910;8.406;2023-05-10T08:53:47;5.65;;;4.47;;
33814;SDS011;20121;51.910;8.406;2023-05-10T08:56:13;9.13;;;4.97;;
33814;SDS011;20121;51.910;8.406;2023-05-10T08:58:40;11.40;;;6.03;;
33814;SDS011;20121;51.910;8.406;2023-05-10T09:01:06;10.38;;;5.63;;
33814;SDS011;20121;51.910;8.406;2023-05-10T09:03:33;10.00;;;4.68;;
33814;SDS011;20121;51.910;8.406;2023-05-10T09:06:00;7.22;;;3.95;;
33814;SDS011;20121;51.910;8.406;2023-05-10T09:08:26;12.50;;;6.03;;
33814;SDS011;20121;51.910;8.406;2023-05-10T09:10:52;10.25;;;6.60;;
33814;SDS011;20121;51.910;8.406;2023-05-10T09:13:19;8.35;;;5.72;;
33814;SDS011;20121;51.910;8.406;2023-05-10T09:15:46;17.05;;;7.13;;
33814;SDS011;20121;51.910;8.406;2023-05-10T09:18:13;14.10;;;6.60;;
33814;SDS011;20121;51.910;8.406;2023-05-10T09:20:39;13.50;;;6.50;;
33814;SDS011;20121;51.910;8.406;2023-05-10T09:23:05;9.00;;;4.55;;
33814;SDS011;20121;51.910;8.406;2023-05-10T09:25:31;11.57;;;5.47;;
33814;SDS011;20121;51.910;8.406;2023-05-10T09:27:58;13.60;;;9.02;;
33814;SDS011;20121;51.910;8.406;2023-05-10T09:32:51;12.02;;;6.13;;
33814;SDS011;20121;51.910;8.406;2023-05-10T09:35:18;15.93;;;7.07;;
33814;SDS011;20121;51.910;8.406;2023-05-10T09:37:46;14.00;;;6.68;;
33814;SDS011;20121;51.910;8.406;2023-05-10T09:40:17;19.40;;;6.38;;
33814;SDS011;20121;51.910;8.406;2023-05-10T09:42:56;10.98;;;5.40;;
33814;SDS011;20121;51.910;8.406;2023-05-10T09:45:24;13.30;;;7.13;;
33814;SDS011;20121;51.910;8.406;2023-05-10T09:47:50;11.45;;;6.32;;
33814;SDS011;20121;51.910;8.406;2023-05-10T09:50:16;12.13;;;5.43;;
33814;SDS011;20121;51.910;8.406;2023-05-10T09:52:46;13.97;;;5.80;;
33814;SDS011;20121;51.910;8.406;2023-05-10T09:55:38;5.65;;;3.58;;
33814;SDS011;20121;51.910;8.406;2023-05-10T09:58:09;9.00;;;5.40;;
33814;SDS011;20121;51.910;8.406;2023-05-10T10:00:36;7.60;;;3.90;;
33814;SDS011;20121;51.910;8.406;2023-05-10T10:03:03;8.00;;;2.95;;
33814;SDS011;20121;51.910;8.406;2023-05-10T10:05:30;7.60;;;4.05;;
33814;SDS011;20121;51.910;8.406;2023-05-10T10:07:57;9.35;;;4.25;;
33814;SDS011;20121;51.910;8.406;2023-05-10T10:10:24;6.75;;;3.58;;
33814;SDS011;20121;51.910;8.406;2023-05-10T10:12:50;6.80;;;3.40;;
33814;SDS011;20121;51.910;8.406;2023-05-10T10:15:16;11.75;;;5.32;;
33814;SDS011;20121;51.910;8.406;2023-05-10T10:17:43;8.15;;;3.92;;
33814;SDS011;20121;51.910;8.406;2023-05-10T10:20:09;8.50;;;5.38;;
33814;SDS011;20121;51.910;8.406;2023-05-10T10:22:36;10.55;;;3.72;;
33814;SDS011;20121;51.910;8.406;2023-05-10T10:25:02;8.23;;;5.28;;
33814;SDS011;20121;51.910;8.406;2023-05-10T10:27:34;7.75;;;3.78;;
33814;SDS011;20121;51.910;8.406;2023-05-10T10:36:28;7.20;;;3.35;;
33814;SDS011;20121;51.910;8.406;2023-05-10T10:38:54;6.60;;;3.67;;
33814;SDS011;20121;51.910;8.406;2023-05-10T10:41:32;8.05;;;3.63;;
33814;SDS011;20121;51.910;8.406;2023-05-10T10:47:03;3.42;;;3.13;;
33814;SDS011;20121;51.910;8.406;2023-05-10T10:54:59;6.80;;;3.45;;
33814;SDS011;20121;51.910;8.406;2023-05-10T10:57:27;4.97;;;3.08;;
33814;SDS011;20121;51.910;8.406;2023-05-10T11:05:44;4.38;;;3.22;;
33814;SDS011;20121;51.910;8.406;2023-05-10T11:10:40;5.55;;;3.03;;
33814;SDS011;20121;51.910;8.406;2023-05-10T11:13:13;5.20;;;2.90;;
33814;SDS011;20121;51.910;8.406;2023-05-10T11:15:39;5.53;;;2.97;;
33814;SDS011;20121;51.910;8.406;2023-05-10T11:18:23;6.30;;;3.50;;
33814;SDS011;20121;51.910;8.406;2023-05-10T11:20:50;5.22;;;2.53;;
33814;SDS011;20121;51.910;8.406;2023-05-10T11:23:17;6.35;;;3.13;;
33814;SDS011;20121;51.910;8.406;2023-05-10T11:25:43;3.72;;;2.22;;
33814;SDS011;20121;51.910;8.406;2023-05-10T11:28:13;2.92;;;2.33;;
33814;SDS011;20121;51.910;8.406;2023-05-10T11:30:39;6.60;;;3.38;;
33814;SDS011;20121;51.910;8.406;2023-05-10T11:33:07;4.18;;;2.63;;
33814;SDS011;20121;51.910;8.406;2023-05-10T11:35:39;6.25;;;3.70;;
33814;SDS011;20121;51.910;8.406;2023-05-10T11:38:06;12.57;;;2.90;;
33814;SDS011;20121;51.910;8.406;2023-05-10T11:40:33;5.43;;;3.13;;
33814;SDS011;20121;51.910;8.406;2023-05-10T11:42:59;7.13;;;3.42;;
33814;SDS011;20121;51.910;8.406;2023-05-10T11:45:25;6.83;;;3.50;;
33814;SDS011;20121;51.910;8.406;2023-05-10T11:47:51;7.25;;;4.82;;
33814;SDS011;20121;51.910;8.406;2023-05-10T11:50:17;5.83;;;3.47;;
33814;SDS011;20121;51.910;8.406;2023-05-10T11:52:42;5.60;;;3.17;;
33814;SDS011;20121;51.910;8.406;2023-05-10T11:55:08;4.97;;;2.80;;
33814;SDS011;20121;51.910;8.406;2023-05-10T11:57:34;5.47;;;3.17;;
33814;SDS011;20121;51.910;8.406;2023-05-10T12:00:03;6.35;;;3.67;;
33814;SDS011;20121;51.910;8.406;2023-05-10T12:02:29;5.78;;;4.03;;
33814;SDS011;20121;51.910;8.406;2023-05-10T12:04:55;5.90;;;3.50;;
33814;SDS011;20121;51.910;8.406;2023-05-10T12:07:21;6.70;;;3.40;;
33814;SDS011;20121;51.910;8.406;2023-05-10T12:12:43;6.60;;;3.70;;
33814;SDS011;20121;51.910;8.406;2023-05-10T12:15:10;4.55;;;3.30;;
33814;SDS011;20121;51.910;8.406;2023-05-10T12:17:44;7.85;;;3.30;;
33814;SDS011;20121;51.910;8.406;2023-05-10T12:20:14;6.75;;;3.45;;
33814;SDS011;20121;51.910;8.406;2023-05-10T12:22:55;11.70;;;3.72;;
33814;SDS011;20121;51.910;8.406;2023-05-10T12:25:23;5.72;;;2.85;;
33814;SDS011;20121;51.910;8.406;2023-05-10T12:27:54;7.00;;;3.60;;
33814;SDS011;20121;51.910;8.406;2023-05-10T12:30:22;6.93;;;3.63;;
33814;SDS011;20121;51.910;8.406;2023-05-10T12:32:49;6.07;;;3.80;;
33814;SDS011;20121;51.910;8.406;2023-05-10T12:35:14;7.25;;;3.95;;
33814;SDS011;20121;51.910;8.406;2023-05-10T12:37:41;7.18;;;4.18;;
33814;SDS011;20121;51.910;8.406;2023-05-10T12:40:08;6.07;;;3.17;;
33814;SDS011;20121;51.910;8.406;2023-05-10T12:42:36;5.28;;;3.40;;
33814;SDS011;20121;51.910;8.406;2023-05-10T12:45:04;6.65;;;3.15;;
33814;SDS011;20121;51.910;8.406;2023-05-10T12:47:32;7.43;;;3.38;;
33814;SDS011;20121;51.910;8.406;2023-05-10T12:50:00;4.40;;;3.13;;
33814;SDS011;20121;51.910;8.406;2023-05-10T12:52:27;6.32;;;3.38;;
33814;SDS011;20121;51.910;8.406;2023-05-10T12:54:53;11.43;;;3.30;;
33814;SDS011;20121;51.910;8.406;2023-05-10T12:57:20;6.47;;;3.80;;
33814;SDS011;20121;51.910;8.406;2023-05-10T12:59:45;10.88;;;3.78;;
33814;SDS011;20121;51.910;8.406;2023-05-10T13:02:11;8.60;;;4.17;;
33814;SDS011;20121;51.910;8.406;2023-05-10T13:04:37;7.83;;;3.10;;
33814;SDS011;20121;51.910;8.406;2023-05-10T13:07:05;6.72;;;2.70;;
33814;SDS011;20121;51.910;8.406;2023-05-10T13:09:34;6.38;;;3.15;;
33814;SDS011;20121;51.910;8.406;2023-05-10T13:12:00;7.17;;;3.43;;
33814;SDS011;20121;51.910;8.406;2023-05-10T13:14:26;5.60;;;3.30;;
33814;SDS011;20121;51.910;8.406;2023-05-10T13:16:52;7.20;;;3.10;;
33814;SDS011;20121;51.910;8.406;2023-05-10T13:19:18;6.05;;;3.22;;
33814;SDS011;20121;51.910;8.406;2023-05-10T13:21:44;11.50;;;3.10;;
33814;SDS011;20121;51.910;8.406;2023-05-10T13:24:10;7.70;;;3.60;;
33814;SDS011;20121;51.910;8.406;2023-05-10T13:26:38;6.00;;;3.67;;
33814;SDS011;20121;51.910;8.406;2023-05-10T13:29:05;7.28;;;4.15;;
33814;SDS011;20121;51.910;8.406;2023-05-10T13:31:31;5.43;;;3.85;;
33814;SDS011;20121;51.910;8.406;2023-05-10T13:33:57;5.83;;;3.60;;
33814;SDS011;20121;51.910;8.406;2023-05-10T13:36:22;5.40;;;3.07;;
33814;SDS011;20121;51.910;8.406;2023-05-10T13:38:48;8.10;;;4.77;;
33814;SDS011;20121;51.910;8.406;2023-05-10T13:41:14;7.73;;;3.73;;
33814;SDS011;20121;51.910;8.406;2023-05-10T13:43:39;7.00;;;3.53;;
33814;SDS011;20121;51.910;8.406;2023-05-10T13:46:05;5.57;;;3.37;;
33814;SDS011;20121;51.910;8.406;2023-05-10T13:48:30;6.40;;;3.90;;
33814;SDS011;20121;51.910;8.406;2023-05-10T13:50:56;7.23;;;3.73;;
33814;SDS011;20121;51.910;8.406;2023-05-10T13:53:22;5.07;;;3.37;;
33814;SDS011;20121;51.910;8.406;2023-05-10T13:55:48;7.80;;;4.63;;
33814;SDS011;20121;51.910;8.406;2023-05-10T13:58:14;5.95;;;3.67;;
33814;SDS011;20121;51.910;8.406;2023-05-10T14:00:40;8.63;;;3.20;;
33814;SDS011;20121;51.910;8.406;2023-05-10T14:03:05;5.00;;;4.03;;
33814;SDS011;20121;51.910;8.406;2023-05-10T14:05:31;5.63;;;2.38;;
33814;SDS011;20121;51.910;8.406;2023-05-10T14:07:57;5.10;;;2.67;;
33814;SDS011;20121;51.910;8.406;2023-05-10T14:10:23;6.57;;;3.53;;
33814;SDS011;20121;51.910;8.406;2023-05-10T14:12:49;8.63;;;3.40;;
33814;SDS011;20121;51.910;8.406;2023-05-10T14:15:15;3.63;;;3.05;;
33814;SDS011;20121;51.910;8.406;2023-05-10T14:17:40;4.90;;;3.50;;
33814;SDS011;20121;51.910;8.406;2023-05-10T14:20:06;11.07;;;4.00;;
33814;SDS011;20121;51.910;8.406;2023-05-10T14:22:33;10.30;;;3.80;;
33814;SDS011;20121;51.910;8.406;2023-05-10T14:24:59;7.63;;;3.80;;
33814;SDS011;20121;51.910;8.406;2023-05-10T14:27:24;4.90;;;2.87;;
33814;SDS011;20121;51.910;8.406;2023-05-10T14:29:50;5.43;;;3.70;;
33814;SDS011;20121;51.910;8.406;2023-05-10T14:32:16;6.20;;;3.20;;
33814;SDS011;20121;51.910;8.406;2023-05-10T14:34:41;6.70;;;3.80;;
33814;SDS011;20121;51.910;8.406;2023-05-10T14:37:09;4.87;;;3.53;;
33814;SDS011;20121;51.910;8.406;2023-05-10T14:39:36;6.38;;;3.97;;
33814;SDS011;20121;51.910;8.406;2023-05-10T14:42:01;6.20;;;3.50;;
33814;SDS011;20121;51.910;8.406;2023-05-10T14:44:27;5.33;;;3.40;;
33814;SDS011;20121;51.910;8.406;2023-05-10T14:46:53;8.40;;;4.17;;
33814;SDS011;20121;51.910;8.406;2023-05-10T14:49:19;8.30;;;4.43;;
33814;SDS011;20121;51.910;8.406;2023-05-10T14:51:47;6.93;;;3.75;;
33814;SDS011;20121;51.910;8.406;2023-05-10T14:54:13;8.43;;;4.27;;
33814;SDS011;20121;51.910;8.406;2023-05-10T14:56:39;6.20;;;3.80;;
33814;SDS011;20121;51.910;8.406;2023-05-10T14:59:06;7.07;;;5.22;;
33814;SDS011;20121;51.910;8.406;2023-05-10T15:01:32;7.67;;;4.37;;
33814;SDS011;20121;51.910;8.406;2023-05-10T15:03:59;6.32;;;4.35;;
33814;SDS011;20121;51.910;8.406;2023-05-10T15:06:32;9.00;;;5.10;;
33814;SDS011;20121;51.910;8.406;2023-05-10T15:08:59;8.45;;;4.00;;
33814;SDS011;20121;51.910;8.406;2023-05-10T15:11:25;5.70;;;3.95;;
33814;SDS011;20121;51.910;8.406;2023-05-10T15:13:51;10.43;;;5.00;;
33814;SDS011;20121;51.910;8.406;2023-05-10T15:16:17;7.87;;;4.40;;
33814;SDS011;20121;51.910;8.406;2023-05-10T15:18:42;8.30;;;4.90;;
33814;SDS011;20121;51.910;8.406;2023-05-10T15:21:08;10.30;;;5.93;;
33814;SDS011;20121;51.910;8.406;2023-05-10T15:23:34;13.65;;;5.40;;
33814;SDS011;20121;51.910;8.406;2023-05-10T15:26:00;7.80;;;4.83;;
33814;SDS011;20121;51.910;8.406;2023-05-10T15:28:26;8.40;;;4.80;;
33814;SDS011;20121;51.910;8.406;2023-05-10T15:30:51;7.20;;;4.07;;